Time;durP1;ratioP1;P1;durP2;ratioP2;P2;SDS_P1;SDS_P2;PMS_P1;PMS_P2;Temp;Humidity;BMP_temperature;BMP_pressure;BME280_temperature;BME280_humidity;BME280_pressure;Samples;Min_cycle;Max_cycle;Signal;HPM_P1;HPM_P2
2022/09/04 00:02:21;;;;;;;;;;;16.90;63.00;;;12.76;100.00;95633.97;4973156;28;19930;-54
2022/09/04 00:05:24;;;;;;;;;;;16.90;63.00;;;12.72;100.00;95623.03;4957554;28;20285;-48
2022/09/04 00:08:24;;;;;;;;;;;16.90;63.00;;;12.69;100.00;95632.41;4971440;28;20059;-54
2022/09/04 00:11:24;;;;;;;;;;;16.90;63.10;;;12.68;100.00;95632.66;4973451;28;20368;-50
2022/09/04 00:13:59;;;;;;;;;;;16.90;63.20;;;12.65;100.00;95633.22;4976327;28;19910;-51
2022/09/04 00:16:59;;;;;;;;;;;16.80;63.20;;;12.56;100.00;95635.66;4970328;28;19920;-52
2022/09/04 00:19:58;;;;;;;;;;;16.80;63.20;;;12.49;100.00;95632.50;4990006;28;19909;-51
2022/09/04 00:23:17;;;;;;;;;;;16.70;63.10;;;12.49;100.00;95641.31;4979132;28;19916;-51
2022/09/04 00:26:07;;;;;;;;;;;16.70;63.20;;;12.48;100.00;95636.25;4932149;29;19965;-49
2022/09/04 00:28:50;;;;;;;;;;;16.70;63.30;;;12.45;100.00;95636.81;4990940;28;19936;-50
2022/09/04 00:31:53;;;;;;;;;;;16.60;63.40;;;12.47;100.00;95642.66;4990279;28;19914;-52
2022/09/04 00:34:44;;;;;;;;;;;16.60;63.50;;;12.46;100.00;95635.72;4985750;28;19913;-50
2022/09/04 00:37:22;;;;;;;;;;;16.60;63.60;;;12.44;100.00;95636.03;4974102;28;19909;-52
2022/09/04 00:40:23;;;;;;;;;;;16.60;63.60;;;12.38;100.00;95639.78;4993052;28;19937;-49
2022/09/04 00:43:14;;;;;;;;;;;16.50;63.60;;;12.35;100.00;95635.00;4996301;28;20287;-52
2022/09/04 00:46:16;;;;;;;;;;;16.50;63.60;;;12.34;100.00;95628.03;5001285;28;19945;-53
2022/09/04 00:49:35;;;;;;;;;;;16.50;63.70;;;12.27;100.00;95631.00;4981039;28;19917;-54
2022/09/04 00:52:47;;;;;;;;;;;16.50;63.80;;;12.26;100.00;95632.09;4973469;28;19921;-53
2022/09/04 00:55:16;;;;;;;;;;;16.40;63.90;;;12.30;100.00;95637.66;4991867;28;20280;-49
2022/09/04 00:58:06;;;;;;;;;;;16.40;64.00;;;12.27;100.00;95641.69;4988958;28;20415;-51
2022/09/04 01:00:35;;;;;;;;;;;16.40;64.10;;;12.23;100.00;95642.50;4973425;28;19909;-51
2022/09/04 01:03:45;;;;;;;;;;;16.40;64.10;;;12.24;100.00;95638.75;4989232;28;19909;-49
2022/09/04 01:06:50;;;;;;;;;;;16.40;64.10;;;12.20;100.00;95649.19;4919862;28;20377;-48
2022/09/04 01:10:03;;;;;;;;;;;16.40;64.20;;;12.16;100.00;95647.31;4980077;28;19956;-54
2022/09/04 01:13:07;;;;;;;;;;;16.40;64.20;;;12.15;100.00;95643.06;4979300;28;20016;-47
2022/09/04 01:15:35;;;;;;;;;;;16.40;64.20;;;12.08;100.00;95642.56;4970185;28;19909;-48
2022/09/04 01:18:29;;;;;;;;;;;16.30;64.20;;;12.02;100.00;95645.25;4990567;28;19917;-49
2022/09/04 01:21:37;;;;;;;;;;;16.30;64.20;;;12.02;100.00;95639.91;4972648;28;19913;-50
2022/09/04 01:24:44;;;;;;;;;;;16.20;64.30;;;12.06;100.00;95642.81;4945783;28;19909;-50
2022/09/04 01:27:53;;;;;;;;;;;16.20;64.40;;;12.06;100.00;95639.34;4989884;28;19909;-51
2022/09/04 01:30:22;;;;;;;;;;;16.20;64.50;;;12.01;100.00;95649.00;4991237;28;20273;-50
2022/09/04 01:33:34;;;;;;;;;;;16.20;64.60;;;11.98;100.00;95643.41;4972958;28;20293;-49
2022/09/04 01:36:06;;;;;;;;;;;16.10;64.50;;;11.95;100.00;95639.41;4980464;28;20295;-51
2022/09/04 01:38:58;;;;;;;;;;;16.10;64.50;;;11.94;100.00;95643.16;4990817;28;20328;-48
2022/09/04 01:42:00;;;;;;;;;;;16.10;64.60;;;11.92;100.00;95636.47;4959213;28;19914;-48
2022/09/04 01:44:26;;;;;;;;;;;16.10;64.60;;;11.90;100.00;95650.06;4977105;28;20372;-54
2022/09/04 01:47:07;;;;;;;;;;;16.10;64.70;;;11.91;100.00;95656.22;4986008;28;19917;-51
2022/09/04 01:49:43;;;;;;;;;;;16.10;64.80;;;11.89;100.00;95655.69;4995094;28;19909;-51
2022/09/04 01:52:45;;;;;;;;;;;16.00;64.80;;;11.87;100.00;95649.81;4976769;28;19922;-52
2022/09/04 01:55:18;;;;;;;;;;;16.10;64.90;;;11.82;100.00;95659.41;4982046;28;19914;-52
2022/09/04 01:57:53;;;;;;;;;;;16.00;64.90;;;11.79;100.00;95659.97;4974997;28;20032;-48
2022/09/04 02:00:22;;;;;;;;;;;16.00;64.80;;;11.78;100.00;95657.53;4995004;28;19952;-53
2022/09/04 02:02:54;;;;;;;;;;;16.00;64.90;;;11.77;100.00;95667.41;4960606;28;19936;-52
2022/09/04 02:05:34;;;;;;;;;;;16.00;64.90;;;11.77;100.00;95659.41;4986359;28;19913;-52
2022/09/04 02:08:30;;;;;;;;;;;15.90;64.90;;;11.77;100.00;95661.28;4994194;28;19909;-52
2022/09/04 02:11:16;;;;;;;;;;;15.90;65.00;;;11.75;100.00;95653.56;4989675;28;19948;-48
2022/09/04 02:14:03;;;;;;;;;;;15.90;65.10;;;11.73;100.00;95662.91;4966746;28;19999;-53
2022/09/04 02:16:45;;;;;;;;;;;15.90;65.10;;;11.70;100.00;95668.78;4988525;28;19941;-48
2022/09/04 02:20:12;;;;;;;;;;;15.90;65.20;;;11.68;100.00;95665.56;4994839;28;20197;-50
2022/09/04 02:23:17;;;;;;;;;;;15.90;65.20;;;11.65;100.00;95674.13;4976211;28;19913;-52
2022/09/04 02:26:34;;;;;;;;;;;15.90;65.20;;;11.62;100.00;95680.78;4994318;28;19916;-50
2022/09/04 02:29:35;;;;;;;;;;;15.80;65.20;;;11.58;100.00;95683.19;4980474;28;19916;-51
2022/09/04 02:32:17;;;;;;;;;;;15.80;65.20;;;11.56;100.00;95676.50;4993941;28;20059;-52
2022/09/04 02:35:09;;;;;;;;;;;15.80;65.30;;;11.55;100.00;95681.06;4993695;28;19909;-50
2022/09/04 02:38:11;;;;;;;;;;;15.80;65.50;;;11.55;100.00;95685.59;4992648;28;19914;-51
2022/09/04 02:40:53;;;;;;;;;;;15.70;66.20;;;11.54;100.00;95679.47;4965232;28;19945;-49
2022/09/04 02:43:51;;;;;;;;;;;15.70;65.50;;;11.53;100.00;95690.38;4992441;28;19909;-52
2022/09/04 02:46:59;;;;;;;;;;;15.70;65.60;;;11.54;100.00;95684.00;4980534;28;20028;-53
2022/09/04 02:49:56;;;;;;;;;;;15.70;65.60;;;11.54;100.00;95692.81;4993140;28;19909;-50
2022/09/04 02:53:09;;;;;;;;;;;15.70;65.70;;;11.52;100.00;95700.25;4975364;28;19995;-49
2022/09/04 02:56:31;;;;;;;;;;;15.70;65.80;;;11.50;100.00;95697.09;4993774;28;19913;-53
2022/09/04 02:59:49;;;;;;;;;;;15.70;65.80;;;11.50;100.00;95697.09;4992869;28;19917;-51
2022/09/04 03:02:32;;;;;;;;;;;15.70;65.80;;;11.49;100.00;95694.66;4992877;28;19913;-50
2022/09/04 03:05:26;;;;;;;;;;;15.70;65.80;;;11.50;100.00;95690.91;4991507;28;20292;-50
2022/09/04 03:08:27;;;;;;;;;;;15.70;66.00;;;11.53;100.00;95696.56;4991726;28;20364;-52
2022/09/04 03:11:12;;;;;;;;;;;15.80;66.00;;;11.56;100.00;95698.69;4978493;28;19914;-48
2022/09/04 03:14:14;;;;;;;;;;;15.80;66.10;;;11.67;100.00;95696.78;4965732;28;20292;-49
2022/09/04 03:17:01;;;;;;;;;;;15.80;66.10;;;11.75;100.00;95700.78;4962618;28;19918;-51
2022/09/04 03:20:18;;;;;;;;;;;15.90;66.20;;;11.78;100.00;95703.72;4982434;28;20274;-52
2022/09/04 03:22:53;;;;;;;;;;;16.00;66.20;;;11.82;100.00;95699.44;4975677;28;20318;-48
2022/09/04 03:25:43;;;;;;;;;;;16.00;66.20;;;11.86;100.00;95712.28;4993021;28;19913;-52
2022/09/04 03:28:43;;;;;;;;;;;16.10;66.20;;;11.94;100.00;95717.06;4978905;28;19913;-50
2022/09/04 03:31:50;;;;;;;;;;;16.10;66.20;;;12.02;100.00;95714.66;4982890;28;19965;-51
2022/09/04 03:34:46;;;;;;;;;;;16.20;66.20;;;12.07;100.00;95707.72;4938591;28;19996;-48
2022/09/04 03:37:27;;;;;;;;;;;16.20;66.30;;;12.08;100.00;95698.63;4963671;28;19956;-53
2022/09/04 03:40:05;;;;;;;;;;;16.20;66.20;;;12.09;100.00;95701.03;4977577;28;19964;-49
2022/09/04 03:42:56;;;;;;;;;;;16.20;66.20;;;12.10;100.00;95694.63;4983304;28;20375;-53
2022/09/04 03:45:50;;;;;;;;;;;16.30;66.20;;;12.11;100.00;95693.56;4974244;28;20008;-53
2022/09/04 03:48:51;;;;;;;;;;;16.30;66.20;;;12.14;100.00;95697.56;4991721;28;19933;-47
2022/09/04 03:52:05;;;;;;;;;;;16.30;66.30;;;12.12;100.00;95713.81;4989669;28;19920;-49
2022/09/04 03:55:36;;;;;;;;;;;16.30;66.20;;;12.16;100.00;95730.09;4992520;28;20295;-51
2022/09/04 03:58:36;;;;;;;;;;;16.30;66.20;;;12.11;100.00;95736.28;4912419;29;20001;-48
2022/09/04 04:01:55;;;;;;;;;;;16.30;66.20;;;12.09;100.00;95729.59;4991307;28;20047;-52
2022/09/04 04:04:46;;;;;;;;;;;16.30;66.20;;;12.06;100.00;95717.56;4988696;28;20269;-52
2022/09/04 04:07:57;;;;;;;;;;;16.30;66.20;;;11.98;100.00;95713.59;4974132;28;19909;-53
2022/09/04 04:11:24;;;;;;;;;;;16.20;66.10;;;11.93;100.00;95720.81;4963545;28;19910;-50
2022/09/04 04:14:26;;;;;;;;;;;16.20;66.20;;;11.87;100.00;95725.34;4951961;28;19921;-52
2022/09/04 04:17:22;;;;;;;;;;;16.10;66.20;;;11.79;100.00;95728.56;4963604;28;19917;-47
2022/09/04 04:20:23;;;;;;;;;;;16.10;66.20;;;11.82;100.00;95736.03;4991974;28;20335;-49
2022/09/04 04:23:16;;;;;;;;;;;16.10;66.30;;;11.81;100.00;95737.06;4958836;28;19920;-51
2022/09/04 04:26:20;;;;;;;;;;;16.10;66.40;;;11.79;100.00;95734.69;4975511;28;19909;-51
2022/09/04 04:28:58;;;;;;;;;;;16.00;66.40;;;11.78;100.00;95734.94;4991107;28;19956;-49
2022/09/04 04:31:43;;;;;;;;;;;16.00;66.40;;;11.76;100.00;95737.88;4991920;28;19921;-50
2022/09/04 04:34:38;;;;;;;;;;;16.00;66.40;;;11.77;100.00;95750.16;4990476;28;20383;-49
2022/09/04 04:37:55;;;;;;;;;;;16.00;66.50;;;11.78;100.00;95751.78;4964736;28;20012;-48
2022/09/04 04:40:59;;;;;;;;;;;16.00;66.50;;;11.85;100.00;95761.41;4973336;28;19917;-52
2022/09/04 04:44:04;;;;;;;;;;;16.00;66.60;;;11.86;100.00;95766.47;4973367;28;19909;-51
2022/09/04 04:46:59;;;;;;;;;;;16.00;66.60;;;11.90;100.00;95764.06;4978835;28;19910;-53
2022/09/04 04:49:55;;;;;;;;;;;16.00;66.70;;;11.90;100.00;95767.53;4976693;28;19944;-51
2022/09/04 04:52:48;;;;;;;;;;;16.00;66.70;;;11.93;100.00;95761.66;4991449;28;20291;-52
2022/09/04 04:55:54;;;;;;;;;;;16.10;66.80;;;11.94;100.00;95762.44;4991429;28;19913;-47
2022/09/04 04:59:01;;;;;;;;;;;16.10;66.80;;;11.90;100.00;95774.72;4989333;28;20511;-49
2022/09/04 05:01:49;;;;;;;;;;;16.10;66.70;;;11.97;100.00;95788.59;4990355;28;20318;-51
2022/09/04 05:05:01;;;;;;;;;;;16.10;66.80;;;12.01;100.00;95785.16;4977566;28;19945;-51
2022/09/04 05:08:05;;;;;;;;;;;16.10;66.80;;;12.02;100.00;95788.59;4990601;28;19919;-49
2022/09/04 05:10:39;;;;;;;;;;;16.10;66.80;;;12.10;100.00;95792.63;4988253;28;20363;-54
2022/09/04 05:13:47;;;;;;;;;;;16.20;66.70;;;12.07;100.00;95799.28;4973048;28;19917;-51
2022/09/04 05:16:41;;;;;;;;;;;16.20;66.60;;;12.06;100.00;95804.88;5003887;23;19930;-48
2022/09/04 05:20:02;;;;;;;;;;;16.30;66.60;;;12.19;100.00;95815.03;5028607;28;20027;-45
2022/09/04 05:22:55;;;;;;;;;;;16.40;66.70;;;12.45;100.00;95815.81;5006988;28;19913;-50
2022/09/04 05:25:53;;;;;;;;;;;16.50;66.90;;;12.69;100.00;95822.16;5010529;28;19913;-45
2022/09/04 05:28:48;;;;;;;;;;;16.60;66.90;;;12.83;100.00;95819.69;5009798;28;19974;-46
2022/09/04 05:31:36;;;;;;;;;;;16.90;67.70;;;12.85;100.00;95830.94;5013031;28;20018;-45
2022/09/04 05:34:11;;;;;;;;;;;17.00;67.60;;;12.91;100.00;95837.88;5011446;28;19920;-45
2022/09/04 05:37:22;;;;;;;;;;;17.20;66.70;;;12.98;100.00;95834.91;4995922;28;20340;-44
2022/09/04 05:40:22;;;;;;;;;;;17.40;66.60;;;13.06;100.00;95834.31;5014153;28;19912;-47
2022/09/04 05:43:14;;;;;;;;;;;17.50;66.40;;;13.12;100.00;95838.56;5021904;28;19909;-48
2022/09/04 05:46:04;;;;;;;;;;;17.60;66.40;;;13.19;100.00;95836.41;5026217;28;19943;-47
2022/09/04 05:49:11;;;;;;;;;;;17.70;66.40;;;13.26;100.00;95846.06;5020115;28;20003;-46
2022/09/04 05:52:10;;;;;;;;;;;17.70;66.30;;;13.34;100.00;95842.78;5015460;28;19973;-47
2022/09/04 05:55:30;;;;;;;;;;;17.80;66.30;;;13.42;100.00;95845.69;5012503;28;19992;-46
2022/09/04 05:58:39;;;;;;;;;;;18.00;66.30;;;13.54;100.00;95840.00;5016739;28;19909;-47
2022/09/04 06:01:31;;;;;;;;;;;18.10;66.20;;;13.66;100.00;95845.00;5020524;28;19920;-48
2022/09/04 06:04:50;;;;;;;;;;;18.20;66.20;;;13.79;100.00;95839.06;5006309;28;19909;-49
2022/09/04 06:08:16;;;;;;;;;;;18.30;66.20;;;13.90;100.00;95850.47;5016208;28;19912;-46
2022/09/04 06:11:34;;;;;;;;;;;18.30;66.10;;;14.01;100.00;95845.88;4964261;28;22889;-46
2022/09/04 06:14:42;;;;;;;;;;;18.50;66.20;;;14.10;100.00;95853.03;5024988;28;19916;-46
2022/09/04 06:17:49;;;;;;;;;;;18.60;66.20;;;14.22;100.00;95865.22;5029120;28;20290;-47
2022/09/04 06:20:35;;;;;;;;;;;18.70;66.10;;;14.48;100.00;95861.28;5025312;28;19966;-46
2022/09/04 06:23:28;;;;;;;;;;;19.00;65.90;;;14.75;100.00;95865.31;5004691;28;20380;-46
2022/09/04 06:26:05;;;;;;;;;;;19.40;65.80;;;14.99;100.00;95873.41;5011637;28;19912;-46
2022/09/04 06:28:48;;;;;;;;;;;19.80;65.70;;;15.30;100.00;95873.06;5035482;28;19908;-47
2022/09/04 06:31:20;;;;;;;;;;;20.20;65.50;;;15.52;100.00;95881.34;5052915;28;20007;-49
2022/09/04 06:34:07;;;;;;;;;;;20.50;65.30;;;15.62;100.00;95878.53;5047573;28;19915;-47
2022/09/04 06:37:03;;;;;;;;;;;20.90;65.00;;;16.04;100.00;95876.09;5003244;28;20558;-47
2022/09/04 06:40:06;;;;;;;;;;;21.20;64.50;;;16.42;96.63;95888.41;5029536;28;19958;-48
2022/09/04 06:43:11;;;;;;;;;;;21.80;64.60;;;16.52;93.59;95881.25;5002542;28;19958;-48
2022/09/04 06:46:02;;;;;;;;;;;22.10;63.60;;;16.58;90.59;95880.88;5031152;28;20441;-46
2022/09/04 06:49:08;;;;;;;;;;;22.30;63.20;;;16.73;90.79;95884.38;5033143;28;19915;-46
2022/09/04 06:52:29;;;;;;;;;;;22.40;62.80;;;16.90;90.28;95887.34;5015834;28;20558;-48
2022/09/04 06:55:09;;;;;;;;;;;22.50;62.50;;;16.96;87.86;95886.16;4996041;28;20371;-46
2022/09/04 06:58:32;;;;;;;;;;;22.50;62.30;;;17.08;87.15;95894.53;5015460;28;20003;-46
2022/09/04 07:01:30;;;;;;;;;;;22.60;62.10;;;17.16;86.80;95897.63;5015382;28;19908;-48
2022/09/04 07:04:33;;;;;;;;;;;22.70;61.90;;;17.18;84.52;95901.59;5032593;28;19924;-48
2022/09/04 07:07:24;;;;;;;;;;;22.60;61.70;;;17.22;85.20;95899.13;5016328;28;19920;-46
2022/09/04 07:10:16;;;;;;;;;;;22.60;61.60;;;17.13;82.58;95900.91;5015398;28;20329;-48
2022/09/04 07:13:53;;;;;;;;;;;22.50;61.60;;;17.02;82.39;95903.78;5017565;28;19925;-51
2022/09/04 07:17:07;;;;;;;;;;;22.30;61.40;;;17.03;83.86;95905.38;4973036;28;19910;-46
2022/09/04 07:19:56;;;;;;;;;;;22.10;61.40;;;16.90;83.59;95903.47;5032357;28;20293;-46
2022/09/04 07:23:03;;;;;;;;;;;21.90;61.30;;;16.83;83.79;95905.75;5014572;28;19952;-46
2022/09/04 07:26:16;;;;;;;;;;;21.80;61.40;;;16.78;85.46;95920.09;5011627;28;19962;-47
2022/09/04 07:29:09;;;;;;;;;;;21.60;61.40;;;16.74;86.17;95919.06;5028777;28;20315;-46
2022/09/04 07:32:33;;;;;;;;;;;21.50;62.30;;;16.83;86.30;95914.63;5032015;28;19956;-47
2022/09/04 07:35:33;;;;;;;;;;;21.60;61.60;;;17.25;84.98;95923.53;4998023;28;19908;-46
2022/09/04 07:38:55;;;;;;;;;;;22.10;61.30;;;17.82;83.91;95927.81;5031598;28;19936;-47
2022/09/04 07:41:43;;;;;;;;;;;22.80;62.00;;;18.36;81.28;95926.06;5032429;28;20073;-50
2022/09/04 07:44:33;;;;;;;;;;;23.50;60.90;;;18.88;76.52;95931.88;5014691;28;19919;-48
2022/09/04 07:47:42;;;;;;;;;;;24.20;60.50;;;19.37;73.29;95930.03;5031852;28;19908;-47
2022/09/04 07:50:28;;;;;;;;;;;24.80;59.80;;;19.84;71.82;95936.56;5032274;28;19913;-46
2022/09/04 07:53:46;;;;;;;;;;;25.50;59.30;;;20.38;71.05;95941.72;4997665;28;20003;-48
2022/09/04 07:57:02;;;;;;;;;;;26.10;58.80;;;20.85;67.45;95941.84;5031817;28;20012;-47
2022/09/04 08:00:01;;;;;;;;;;;26.70;58.10;;;21.45;66.13;95932.00;5030647;28;19912;-45
2022/09/04 08:03:15;;;;;;;;;;;27.30;57.50;;;21.86;64.84;95934.00;5030424;28;19909;-45
2022/09/04 08:06:13;;;;;;;;;;;27.80;56.90;;;22.05;63.61;95946.34;5003719;28;19977;-48
2022/09/04 08:09:26;;;;;;;;;;;28.30;56.20;;;22.59;63.11;95941.81;4999344;28;19913;-45
2022/09/04 08:12:20;;;;;;;;;;;28.70;55.80;;;22.73;59.96;95938.81;4963664;28;19958;-47
2022/09/04 08:14:55;;;;;;;;;;;29.20;55.20;;;23.14;61.91;95942.56;5028313;28;19962;-46
2022/09/04 08:17:41;;;;;;;;;;;29.60;54.60;;;23.53;58.27;95943.91;5013684;28;19932;-49
2022/09/04 08:20:19;;;;;;;;;;;29.90;54.30;;;23.80;56.33;95941.66;5014958;28;20427;-47
2022/09/04 08:23:00;;;;;;;;;;;30.30;53.90;;;23.87;56.24;95944.59;5031024;28;20397;-48
2022/09/04 08:26:04;;;;;;;;;;;30.60;53.30;;;24.18;53.60;95951.34;5031395;28;20030;-46
2022/09/04 08:28:32;;;;;;;;;;;30.90;52.70;;;24.57;53.54;95946.28;5030003;28;20291;-51
2022/09/04 08:31:27;;;;;;;;;;;31.20;52.30;;;25.08;54.06;95951.97;5013341;28;19999;-47
2022/09/04 08:34:51;;;;;;;;;;;31.50;52.00;;;25.57;51.72;95957.13;5013781;28;19919;-51
2022/09/04 08:38:09;;;;;;;;;;;31.90;51.70;;;25.87;50.41;95960.25;5030919;28;19909;-48
2022/09/04 08:41:11;;;;;;;;;;;32.30;51.20;;;26.01;49.70;95970.69;5031011;28;20371;-48
2022/09/04 08:43:52;;;;;;;;;;;32.70;50.50;;;26.09;51.54;95969.72;5032080;28;20363;-46
2022/09/04 08:46:47;;;;;;;;;;;32.80;49.90;;;26.09;49.99;95969.72;5019497;28;19916;-48
2022/09/04 08:49:53;;;;;;;;;;;33.10;49.60;;;26.03;49.37;95965.69;5007764;28;19996;-48
2022/09/04 08:52:52;;;;;;;;;;;33.30;49.10;;;26.18;48.78;95964.88;5030176;28;20355;-46
2022/09/04 08:55:55;;;;;;;;;;;33.50;49.30;;;26.71;49.70;95970.72;5030358;28;19913;-48
2022/09/04 08:58:54;;;;;;;;;;;33.70;48.20;;;27.09;48.17;95968.31;5030659;28;20314;-50
2022/09/04 09:02:10;;;;;;;;;;;34.00;47.90;;;27.14;47.27;95966.13;5031227;28;20365;-48
2022/09/04 09:05:17;;;;;;;;;;;34.30;47.50;;;27.50;46.34;95961.28;4969513;28;20004;-47
2022/09/04 09:08:16;;;;;;;;;;;34.50;47.10;;;27.69;46.47;95960.41;4960719;28;19960;-46
2022/09/04 09:11:00;;;;;;;;;;;34.70;46.80;;;27.93;47.02;95958.47;4969665;28;19914;-47
2022/09/04 09:14:17;;;;;;;;;;;34.90;46.40;;;28.20;46.63;95959.25;4968919;28;19910;-47
2022/09/04 09:17:15;;;;;;;;;;;35.10;46.00;;;28.47;45.45;95963.59;4969293;28;20403;-48
2022/09/04 09:20:45;;;;;;;;;;;35.40;45.70;;;28.36;44.43;95960.69;4969884;28;20312;-49
2022/09/04 09:23:40;;;;;;;;;;;35.60;45.20;;;28.60;45.24;95953.19;4961153;28;19914;-46
2022/09/04 09:26:37;;;;;;;;;;;35.80;44.70;;;28.79;44.30;95958.50;4953718;28;20000;-46
2022/09/04 09:29:41;;;;;;;;;;;35.90;45.10;;;29.03;43.65;95965.47;4936265;28;20327;-50
2022/09/04 09:32:47;;;;;;;;;;;36.10;44.20;;;29.19;43.64;95961.72;4968649;28;20439;-50
2022/09/04 09:36:03;;;;;;;;;;;36.30;43.80;;;29.25;43.37;95949.25;4982515;28;19913;-48
2022/09/04 09:38:55;;;;;;;;;;;36.50;43.60;;;29.13;44.84;95944.03;5020100;28;19916;-51
2022/09/04 09:41:42;;;;;;;;;;;36.70;43.40;;;28.92;43.83;95961.78;5013586;28;20011;-51
2022/09/04 09:44:45;;;;;;;;;;;36.80;43.10;;;29.01;43.10;95947.81;5027288;28;19909;-47
2022/09/04 09:48:03;;;;;;;;;;;36.90;42.80;;;29.37;45.35;95948.19;5024303;28;19908;-46
2022/09/04 09:51:19;;;;;;;;;;;36.90;42.30;;;29.75;41.27;95949.72;5008058;28;20430;-46
2022/09/04 09:53:51;;;;;;;;;;;37.20;42.40;;;29.96;39.94;95941.66;5029669;28;19913;-53
2022/09/04 09:57:07;;;;;;;;;;;37.40;42.00;;;29.69;39.80;95948.50;5030275;28;19958;-46
2022/09/04 10:00:22;;;;;;;;;;;37.60;41.80;;;29.89;40.36;95947.09;4993431;28;20421;-49
2022/09/04 10:03:23;;;;;;;;;;;37.70;41.10;;;30.52;40.46;95944.34;5007902;28;19912;-48
2022/09/04 10:06:19;;;;;;;;;;;37.80;40.90;;;30.86;39.06;95939.44;5034208;28;20334;-50
2022/09/04 10:09:15;;;;;;;;;;;38.10;40.80;;;30.98;39.62;95943.78;5034061;28;19912;-48
2022/09/04 10:12:18;;;;;;;;;;;38.30;40.60;;;31.26;39.35;95937.56;5016191;28;19924;-50
2022/09/04 10:15:21;;;;;;;;;;;38.40;40.10;;;31.02;43.42;95939.06;5033622;28;19908;-49
2022/09/04 10:18:33;;;;;;;;;;;38.60;39.80;;;31.07;39.69;95935.97;5025429;28;19918;-48
2022/09/04 10:21:30;;;;;;;;;;;38.80;39.70;;;31.46;37.74;95938.00;5033795;28;19957;-48
2022/09/04 10:24:30;;;;;;;;;;;38.90;39.40;;;31.71;36.94;95922.28;5015574;28;20297;-47
2022/09/04 10:27:20;;;;;;;;;;;39.10;39.20;;;31.73;37.16;95930.16;5033518;28;19908;-46
2022/09/04 10:30:21;;;;;;;;;;;39.30;39.00;;;31.74;37.07;95923.47;5016960;28;20393;-50
2022/09/04 10:33:17;;;;;;;;;;;39.50;38.70;;;31.90;37.58;95925.84;5017767;28;20016;-46
2022/09/04 10:36:12;;;;;;;;;;;39.60;38.20;;;32.10;36.29;95920.72;5016899;28;19912;-49
2022/09/04 10:40:34;;;;;;;;;;;39.70;38.00;;;32.02;35.21;95922.69;5018227;28;19909;-52
2022/09/04 10:41:52;;;;;;;;;;;39.90;37.80;;;31.82;35.25;95916.00;5018293;28;19908;-48
2022/09/04 10:44:41;;;;;;;;;;;39.90;37.30;;;31.24;38.42;95921.44;5015478;28;19909;-49
2022/09/04 10:47:54;;;;;;;;;;;39.90;37.00;;;31.52;36.24;95920.72;4987079;28;20019;-49
2022/09/04 10:51:12;;;;;;;;;;;40.00;36.90;;;31.76;36.61;95916.41;4933769;29;19919;-49
2022/09/04 10:54:15;;;;;;;;;;;40.00;36.60;;;32.14;35.82;95911.25;4933336;29;20393;-47
2022/09/04 10:57:17;;;;;;;;;;;40.00;36.60;;;31.53;35.88;95913.28;5025357;28;19958;-46
2022/09/04 11:00:15;;;;;;;;;;;40.00;36.20;;;32.04;34.36;95912.06;5033213;28;19923;-47
2022/09/04 11:03:05;;;;;;;;;;;40.10;36.10;;;32.40;35.18;95923.00;5016217;28;19908;-47
2022/09/04 11:06:24;;;;;;;;;;;40.10;35.90;;;32.52;36.22;95908.03;5015106;28;19913;-47
2022/09/04 11:09:30;;;;;;;;;;;40.30;35.70;;;32.69;34.65;95905.22;5033008;28;19915;-46
2022/09/04 11:12:23;;;;;;;;;;;40.60;35.60;;;32.61;35.93;95903.66;5032613;28;20428;-51
2022/09/04 11:15:46;;;;;;;;;;;40.80;35.30;;;32.34;34.19;95910.81;5014585;28;20301;-50
2022/09/04 11:18:53;;;;;;;;;;;41.00;35.10;;;32.59;33.46;95906.03;5041611;22;20418;-47
2022/09/04 11:21:31;;;;;;;;;;;41.30;34.70;;;32.95;31.89;95911.38;5030424;28;20298;-49
2022/09/04 11:24:32;;;;;;;;;;;41.50;34.40;;;32.84;31.97;95903.16;5028213;28;19916;-49
2022/09/04 11:28:19;;;;;;;;;;;41.70;34.20;;;33.17;33.39;95898.28;5032227;28;19915;-46
2022/09/04 11:31:30;;;;;;;;;;;42.00;33.80;;;33.03;32.51;95895.59;4938856;28;19961;-49
2022/09/04 11:34:32;;;;;;;;;;;41.90;33.60;;;32.76;34.52;95893.34;5052674;28;19912;-51
2022/09/04 11:38:00;;;;;;;;;;;41.40;33.70;;;32.58;34.87;95892.66;5015222;28;20363;-46
2022/09/04 11:41:11;;;;;;;;;;;41.20;33.70;;;32.66;35.45;95885.94;5030871;28;20079;-52
2022/09/04 11:44:13;;;;;;;;;;;41.30;33.50;;;32.61;35.37;95889.09;5031105;28;19958;-53
2022/09/04 11:47:17;;;;;;;;;;;41.50;33.20;;;32.81;34.25;95889.38;5047725;28;20363;-51
2022/09/04 11:50:19;;;;;;;;;;;41.40;32.90;;;32.43;34.16;95891.88;5032822;28;20272;-46
2022/09/04 11:53:34;;;;;;;;;;;40.70;33.00;;;31.68;34.75;95892.00;5009191;28;19924;-54
2022/09/04 11:56:38;;;;;;;;;;;40.00;33.30;;;31.41;36.22;95895.16;5027778;28;19928;-48
2022/09/04 11:59:22;;;;;;;;;;;39.20;33.60;;;30.92;36.65;95890.34;5037182;28;19921;-49
2022/09/04 12:02:35;;;;;;;;;;;38.40;33.90;;;30.63;37.15;95891.00;5030805;28;19913;-51
2022/09/04 12:05:54;;;;;;;;;;;37.80;34.20;;;29.91;38.40;95887.09;5031984;28;19908;-49
2022/09/04 12:08:27;;;;;;;;;;;37.10;34.50;;;29.55;41.58;95894.25;5031495;28;19909;-46
2022/09/04 12:11:32;;;;;;;;;;;36.50;34.90;;;29.55;39.59;95890.72;5047871;28;19908;-46
2022/09/04 12:14:54;;;;;;;;;;;36.40;35.10;;;29.52;39.47;95890.31;5032289;28;19912;-52
2022/09/04 12:18:13;;;;;;;;;;;36.80;35.00;;;29.72;39.00;95893.63;5045417;28;20398;-46
2022/09/04 12:21:17;;;;;;;;;;;36.90;35.00;;;29.94;38.89;95894.56;5014352;28;19979;-53
2022/09/04 12:24:39;;;;;;;;;;;37.10;34.90;;;30.00;38.23;95892.25;5021207;28;19913;-51
2022/09/04 12:27:51;;;;;;;;;;;37.50;34.70;;;30.62;37.23;95883.94;5027652;28;19963;-52
2022/09/04 12:30:54;;;;;;;;;;;37.90;34.60;;;31.20;35.92;95890.41;5050074;28;19968;-48
2022/09/04 12:33:51;;;;;;;;;;;38.60;34.30;;;30.90;36.13;95877.00;5051218;28;20397;-47
2022/09/04 12:36:24;;;;;;;;;;;39.20;33.90;;;31.11;36.17;95878.97;5049268;28;20290;-50
2022/09/04 12:39:06;;;;;;;;;;;39.50;33.50;;;31.36;35.63;95883.75;5033027;28;20444;-51
2022/09/04 12:42:12;;;;;;;;;;;39.80;33.20;;;31.46;35.00;95877.47;5049695;28;20015;-47
2022/09/04 12:45:12;;;;;;;;;;;40.10;33.10;;;31.04;35.70;95876.22;5050956;28;19973;-47
2022/09/04 12:47:47;;;;;;;;;;;39.80;33.00;;;30.98;35.98;95880.53;5013446;28;19948;-48
2022/09/04 12:50:44;;;;;;;;;;;39.10;33.00;;;31.10;38.35;95880.94;5048916;28;19908;-46
2022/09/04 12:53:33;;;;;;;;;;;38.60;33.20;;;30.83;37.94;95877.75;5050617;28;19915;-45
2022/09/04 12:56:11;;;;;;;;;;;38.00;33.40;;;30.80;37.74;95878.53;5019324;28;20215;-45
2022/09/04 12:58:58;;;;;;;;;;;37.60;33.70;;;30.01;35.70;95880.09;5030214;28;20299;-47
2022/09/04 13:02:00;;;;;;;;;;;37.50;33.70;;;30.02;35.56;95878.13;5045808;28;19956;-46
2022/09/04 13:05:08;;;;;;;;;;;37.00;33.70;;;29.79;35.85;95875.63;5030674;28;19912;-45
2022/09/04 13:07:58;;;;;;;;;;;36.50;33.80;;;29.95;35.83;95885.16;5042529;28;26617;-47
2022/09/04 13:10:42;;;;;;;;;;;36.40;33.90;;;30.19;34.91;95875.50;5044852;28;19918;-45
2022/09/04 13:13:46;;;;;;;;;;;36.70;33.80;;;30.43;34.83;95889.78;5029723;28;19930;-46
2022/09/04 13:16:29;;;;;;;;;;;37.10;33.80;;;30.28;35.45;95882.63;5030054;28;20293;-45
2022/09/04 13:19:51;;;;;;;;;;;37.00;33.70;;;30.45;34.96;95881.91;5029842;28;19917;-45
2022/09/04 13:22:56;;;;;;;;;;;36.80;33.80;;;30.40;36.99;95887.78;5030273;28;20419;-47
2022/09/04 13:25:51;;;;;;;;;;;36.60;33.70;;;30.21;37.97;95886.13;5027246;28;20343;-47
2022/09/04 13:28:54;;;;;;;;;;;36.30;33.70;;;30.40;36.64;95887.78;5005932;28;19999;-45
2022/09/04 13:31:59;;;;;;;;;;;36.40;33.80;;;30.83;37.73;95886.00;5047308;28;20297;-45
2022/09/04 13:34:59;;;;;;;;;;;37.00;33.70;;;31.13;34.36;95887.66;5050238;28;19999;-46
2022/09/04 13:38:01;;;;;;;;;;;37.50;33.60;;;31.04;33.80;95884.47;5049230;28;19915;-46
2022/09/04 13:41:29;;;;;;;;;;;37.60;33.30;;;31.27;33.11;95881.34;5050176;28;19916;-45